In Rescue
 
Open Full Screen Window  High Contrast Mode
Wind Gusting 00 knots
10
March 01, 2024 4:51 PM EST
Weather Information
Wind Direction
  200 °
Wind Speed
  10 kt (12 mph)
Wind Gust
  00 kt (0 mph)
Altimeter
30.06 in
Visibility
10 SM
Temperature
08° C
46° F
Dewpoint
-09° C
16° F
Humidity
29%
Sky Condition
Clear
VFR

METAR KCAD 012151Z AUTO 20010KT 10SM CLR 08/M09 A3006 RMK AO2

FAA Disclaimer: The data displayed is for advisory purposes only and is not to be used for flight planning or operations.